sensor_id;sensor_type;location;lat;lon;timestamp;temperature;humidity
1415;DHT22;702;49.466;11.086;2024-03-06T00:01:03;6.90;95.00
1415;DHT22;702;49.466;11.086;2024-03-06T00:03:31;6.90;95.30
1415;DHT22;702;49.466;11.086;2024-03-06T00:05:59;6.90;95.90
1415;DHT22;702;49.466;11.086;2024-03-06T00:08:28;7.10;95.50
1415;DHT22;702;49.466;11.086;2024-03-06T00:10:56;7.20;94.50
1415;DHT22;702;49.466;11.086;2024-03-06T00:13:24;7.10;94.10
1415;DHT22;702;49.466;11.086;2024-03-06T00:15:52;7.10;94.90
1415;DHT22;702;49.466;11.086;2024-03-06T00:18:20;7.10;94.80
1415;DHT22;702;49.466;11.086;2024-03-06T00:20:47;7.10;94.50
1415;DHT22;702;49.466;11.086;2024-03-06T00:23:14;7.20;95.10
1415;DHT22;702;49.466;11.086;2024-03-06T00:25:43;7.20;94.70
1415;DHT22;702;49.466;11.086;2024-03-06T00:28:12;7.20;94.70
1415;DHT22;702;49.466;11.086;2024-03-06T00:30:40;7.20;94.70
1415;DHT22;702;49.466;11.086;2024-03-06T00:33:07;7.20;94.40
1415;DHT22;702;49.466;11.086;2024-03-06T00:35:34;7.10;94.30
1415;DHT22;702;49.466;11.086;2024-03-06T00:38:02;7.10;94.80
1415;DHT22;702;49.466;11.086;2024-03-06T00:40:32;7.20;94.20
1415;DHT22;702;49.466;11.086;2024-03-06T00:43:00;7.20;94.40
1415;DHT22;702;49.466;11.086;2024-03-06T00:45:28;7.20;94.00
1415;DHT22;702;49.466;11.086;2024-03-06T00:47:55;7.30;94.40
1415;DHT22;702;49.466;11.086;2024-03-06T00:50:23;7.20;93.80
1415;DHT22;702;49.466;11.086;2024-03-06T00:52:50;7.10;94.40
1415;DHT22;702;49.466;11.086;2024-03-06T00:55:17;7.10;95.00
1415;DHT22;702;49.466;11.086;2024-03-06T00:57:47;7.10;95.00
1415;DHT22;702;49.466;11.086;2024-03-06T01:00:18;7.10;95.00
1415;DHT22;702;49.466;11.086;2024-03-06T01:02:45;7.10;95.50
1415;DHT22;702;49.466;11.086;2024-03-06T01:05:13;7.20;95.00
1415;DHT22;702;49.466;11.086;2024-03-06T01:07:40;7.10;94.50
1415;DHT22;702;49.466;11.086;2024-03-06T01:10:08;7.10;95.20
1415;DHT22;702;49.466;11.086;2024-03-06T01:12:36;7.10;95.10
1415;DHT22;702;49.466;11.086;2024-03-06T01:15:05;7.10;94.70
1415;DHT22;702;49.466;11.086;2024-03-06T01:17:35;7.00;94.60
1415;DHT22;702;49.466;11.086;2024-03-06T01:20:02;6.80;95.30
1415;DHT22;702;49.466;11.086;2024-03-06T01:22:33;6.80;96.20
1415;DHT22;702;49.466;11.086;2024-03-06T01:25:00;6.80;97.00
1415;DHT22;702;49.466;11.086;2024-03-06T01:27:28;6.70;96.80
1415;DHT22;702;49.466;11.086;2024-03-06T01:29:55;6.70;97.10
1415;DHT22;702;49.466;11.086;2024-03-06T01:32:24;6.60;98.10
1415;DHT22;702;49.466;11.086;2024-03-06T01:34:53;6.60;98.10
1415;DHT22;702;49.466;11.086;2024-03-06T01:37:20;6.60;98.80
1415;DHT22;702;49.466;11.086;2024-03-06T01:39:47;6.60;99.20
1415;DHT22;702;49.466;11.086;2024-03-06T01:42:17;6.60;99.20
1415;DHT22;702;49.466;11.086;2024-03-06T01:44:44;6.50;99.60
1415;DHT22;702;49.466;11.086;2024-03-06T01:47:11;6.50;99.80
1415;DHT22;702;49.466;11.086;2024-03-06T01:49:39;6.50;99.90
1415;DHT22;702;49.466;11.086;2024-03-06T01:52:09;6.60;99.90
1415;DHT22;702;49.466;11.086;2024-03-06T01:54:36;6.60;99.90
1415;DHT22;702;49.466;11.086;2024-03-06T01:57:05;6.60;99.90
1415;DHT22;702;49.466;11.086;2024-03-06T01:59:33;6.60;99.90
1415;DHT22;702;49.466;11.086;2024-03-06T02:02:02;6.60;99.90
1415;DHT22;702;49.466;11.086;2024-03-06T02:04:30;6.60;99.90
1415;DHT22;702;49.466;11.086;2024-03-06T02:06:58;6.60;99.90
1415;DHT22;702;49.466;11.086;2024-03-06T02:09:27;6.60;99.90
1415;DHT22;702;49.466;11.086;2024-03-06T02:11:54;6.60;99.90
1415;DHT22;702;49.466;11.086;2024-03-06T02:14:23;6.60;99.90
1415;DHT22;702;49.466;11.086;2024-03-06T02:16:50;6.60;99.90
1415;DHT22;702;49.466;11.086;2024-03-06T02:19:17;6.70;99.90
1415;DHT22;702;49.466;11.086;2024-03-06T02:21:46;6.70;99.90
1415;DHT22;702;49.466;11.086;2024-03-06T02:24:15;6.70;99.60
1415;DHT22;702;49.466;11.086;2024-03-06T02:26:42;6.60;99.80
1415;DHT22;702;49.466;11.086;2024-03-06T02:29:09;6.50;99.90
1415;DHT22;702;49.466;11.086;2024-03-06T02:31:36;6.60;99.90
1415;DHT22;702;49.466;11.086;2024-03-06T02:34:05;6.70;99.90
1415;DHT22;702;49.466;11.086;2024-03-06T02:36:32;6.60;99.90
1415;DHT22;702;49.466;11.086;2024-03-06T02:39:00;6.60;99.90
1415;DHT22;702;49.466;11.086;2024-03-06T02:41:34;6.70;99.90
1415;DHT22;702;49.466;11.086;2024-03-06T02:44:02;6.70;99.70
1415;DHT22;702;49.466;11.086;2024-03-06T02:46:31;6.50;99.70
1415;DHT22;702;49.466;11.086;2024-03-06T02:48:58;6.40;99.90
1415;DHT22;702;49.466;11.086;2024-03-06T02:51:25;6.40;99.90
1415;DHT22;702;49.466;11.086;2024-03-06T02:53:53;6.40;99.90
1415;DHT22;702;49.466;11.086;2024-03-06T02:56:21;6.60;99.90
1415;DHT22;702;49.466;11.086;2024-03-06T02:58:48;6.50;99.90
1415;DHT22;702;49.466;11.086;2024-03-06T03:01:16;6.60;99.90
1415;DHT22;702;49.466;11.086;2024-03-06T03:03:43;6.40;99.90
1415;DHT22;702;49.466;11.086;2024-03-06T03:06:12;6.40;99.90
1415;DHT22;702;49.466;11.086;2024-03-06T03:08:40;6.40;99.90
1415;DHT22;702;49.466;11.086;2024-03-06T03:11:07;6.40;99.90
1415;DHT22;702;49.466;11.086;2024-03-06T03:13:37;6.40;99.90
1415;DHT22;702;49.466;11.086;2024-03-06T03:16:05;6.40;99.90
1415;DHT22;702;49.466;11.086;2024-03-06T03:18:32;6.40;99.90
1415;DHT22;702;49.466;11.086;2024-03-06T03:21:00;6.30;99.90
1415;DHT22;702;49.466;11.086;2024-03-06T03:23:28;6.20;99.90
1415;DHT22;702;49.466;11.086;2024-03-06T03:25:55;6.20;99.90
1415;DHT22;702;49.466;11.086;2024-03-06T03:28:22;6.20;99.90
1415;DHT22;702;49.466;11.086;2024-03-06T03:30:51;6.20;99.90
1415;DHT22;702;49.466;11.086;2024-03-06T03:33:18;6.10;99.90
1415;DHT22;702;49.466;11.086;2024-03-06T03:35:45;6.10;99.90
1415;DHT22;702;49.466;11.086;2024-03-06T03:38:12;6.10;99.90
1415;DHT22;702;49.466;11.086;2024-03-06T03:40:40;6.10;99.90
1415;DHT22;702;49.466;11.086;2024-03-06T03:43:07;6.20;99.90
1415;DHT22;702;49.466;11.086;2024-03-06T03:45:34;6.20;99.90
1415;DHT22;702;49.466;11.086;2024-03-06T03:48:05;6.20;99.90
1415;DHT22;702;49.466;11.086;2024-03-06T03:50:32;6.20;99.90
1415;DHT22;702;49.466;11.086;2024-03-06T03:53:01;6.20;99.90
1415;DHT22;702;49.466;11.086;2024-03-06T03:55:31;6.20;99.90
1415;DHT22;702;49.466;11.086;2024-03-06T03:57:59;6.20;99.90
1415;DHT22;702;49.466;11.086;2024-03-06T04:00:27;6.30;99.90
1415;DHT22;702;49.466;11.086;2024-03-06T04:02:54;6.30;99.90
1415;DHT22;702;49.466;11.086;2024-03-06T04:05:23;6.30;99.90
1415;DHT22;702;49.466;11.086;2024-03-06T04:07:50;6.30;99.90
1415;DHT22;702;49.466;11.086;2024-03-06T04:10:18;6.40;99.90
1415;DHT22;702;49.466;11.086;2024-03-06T04:12:45;6.40;99.90
1415;DHT22;702;49.466;11.086;2024-03-06T04:15:13;6.50;99.90
1415;DHT22;702;49.466;11.086;2024-03-06T04:17:42;6.50;99.90
1415;DHT22;702;49.466;11.086;2024-03-06T04:20:11;6.50;99.90
1415;DHT22;702;49.466;11.086;2024-03-06T04:22:41;6.60;99.90
1415;DHT22;702;49.466;11.086;2024-03-06T04:25:08;6.50;99.90
1415;DHT22;702;49.466;11.086;2024-03-06T04:27:37;6.50;99.90
1415;DHT22;702;49.466;11.086;2024-03-06T04:30:05;6.50;99.90
1415;DHT22;702;49.466;11.086;2024-03-06T04:32:33;6.60;99.90
1415;DHT22;702;49.466;11.086;2024-03-06T04:35:01;6.60;99.90
1415;DHT22;702;49.466;11.086;2024-03-06T04:37:28;6.70;99.90
1415;DHT22;702;49.466;11.086;2024-03-06T04:39:58;6.50;99.90
1415;DHT22;702;49.466;11.086;2024-03-06T04:42:25;6.60;99.90
1415;DHT22;702;49.466;11.086;2024-03-06T04:44:52;6.60;99.90
1415;DHT22;702;49.466;11.086;2024-03-06T04:47:21;6.60;99.90
1415;DHT22;702;49.466;11.086;2024-03-06T04:49:52;6.50;99.90
1415;DHT22;702;49.466;11.086;2024-03-06T04:52:19;6.50;99.90
1415;DHT22;702;49.466;11.086;2024-03-06T04:54:46;6.50;99.90
1415;DHT22;702;49.466;11.086;2024-03-06T04:57:15;6.50;99.90
1415;DHT22;702;49.466;11.086;2024-03-06T04:59:45;6.70;99.90
1415;DHT22;702;49.466;11.086;2024-03-06T05:02:12;6.70;99.90
1415;DHT22;702;49.466;11.086;2024-03-06T05:04:40;6.70;99.90
1415;DHT22;702;49.466;11.086;2024-03-06T05:07:07;6.80;99.90
1415;DHT22;702;49.466;11.086;2024-03-06T05:09:34;6.70;99.90
1415;DHT22;702;49.466;11.086;2024-03-06T05:12:02;6.70;99.90
1415;DHT22;702;49.466;11.086;2024-03-06T05:14:32;6.60;99.90
1415;DHT22;702;49.466;11.086;2024-03-06T05:16:59;6.50;99.90
1415;DHT22;702;49.466;11.086;2024-03-06T05:19:26;6.50;99.90
1415;DHT22;702;49.466;11.086;2024-03-06T05:21:58;6.50;99.90
1415;DHT22;702;49.466;11.086;2024-03-06T05:24:25;6.50;99.90
1415;DHT22;702;49.466;11.086;2024-03-06T05:26:53;6.40;99.90
1415;DHT22;702;49.466;11.086;2024-03-06T05:29:20;6.40;99.90
1415;DHT22;702;49.466;11.086;2024-03-06T05:31:49;6.30;99.90
1415;DHT22;702;49.466;11.086;2024-03-06T05:34:16;6.40;99.90
1415;DHT22;702;49.466;11.086;2024-03-06T05:36:44;6.40;99.90
1415;DHT22;702;49.466;11.086;2024-03-06T05:39:11;6.40;99.90
1415;DHT22;702;49.466;11.086;2024-03-06T05:41:39;6.40;99.90
1415;DHT22;702;49.466;11.086;2024-03-06T05:44:06;6.40;99.90
1415;DHT22;702;49.466;11.086;2024-03-06T05:46:34;6.40;99.90
1415;DHT22;702;49.466;11.086;2024-03-06T05:49:04;6.40;99.90
1415;DHT22;702;49.466;11.086;2024-03-06T05:51:31;6.30;99.90
1415;DHT22;702;49.466;11.086;2024-03-06T05:53:58;6.30;99.90
1415;DHT22;702;49.466;11.086;2024-03-06T05:56:25;6.40;99.90
1415;DHT22;702;49.466;11.086;2024-03-06T05:58:52;6.40;99.90
1415;DHT22;702;49.466;11.086;2024-03-06T06:01:20;6.30;99.90
1415;DHT22;702;49.466;11.086;2024-03-06T06:03:48;6.40;99.90
1415;DHT22;702;49.466;11.086;2024-03-06T06:06:17;6.60;99.90
1415;DHT22;702;49.466;11.086;2024-03-06T06:08:46;6.60;99.90
1415;DHT22;702;49.466;11.086;2024-03-06T06:11:13;6.60;99.90
1415;DHT22;702;49.466;11.086;2024-03-06T06:13:41;6.60;99.90
1415;DHT22;702;49.466;11.086;2024-03-06T06:16:08;6.60;99.90
1415;DHT22;702;49.466;11.086;2024-03-06T06:18:35;6.60;99.90
1415;DHT22;702;49.466;11.086;2024-03-06T06:21:04;6.70;99.90
1415;DHT22;702;49.466;11.086;2024-03-06T06:23:34;6.70;99.90
1415;DHT22;702;49.466;11.086;2024-03-06T06:26:01;6.70;99.90
1415;DHT22;702;49.466;11.086;2024-03-06T06:28:29;6.70;99.90
1415;DHT22;702;49.466;11.086;2024-03-06T06:30:56;6.70;99.90
1415;DHT22;702;49.466;11.086;2024-03-06T06:33:23;6.60;99.90
1415;DHT22;702;49.466;11.086;2024-03-06T06:35:50;6.70;99.90
1415;DHT22;702;49.466;11.086;2024-03-06T06:38:20;6.70;99.90
1415;DHT22;702;49.466;11.086;2024-03-06T06:40:48;6.70;99.90
1415;DHT22;702;49.466;11.086;2024-03-06T06:43:16;6.70;99.90
1415;DHT22;702;49.466;11.086;2024-03-06T06:45:43;6.90;99.90
1415;DHT22;702;49.466;11.086;2024-03-06T06:48:11;7.00;99.90
1415;DHT22;702;49.466;11.086;2024-03-06T06:50:38;7.20;99.90
1415;DHT22;702;49.466;11.086;2024-03-06T06:53:05;7.30;99.90
1415;DHT22;702;49.466;11.086;2024-03-06T06:55:41;7.40;99.90
1415;DHT22;702;49.466;11.086;2024-03-06T06:58:10;7.60;98.20
1415;DHT22;702;49.466;11.086;2024-03-06T07:00:37;7.80;99.00
1415;DHT22;702;49.466;11.086;2024-03-06T07:03:04;7.90;96.60
1415;DHT22;702;49.466;11.086;2024-03-06T07:05:32;7.70;94.90
1415;DHT22;702;49.466;11.086;2024-03-06T07:08:00;7.60;95.30
1415;DHT22;702;49.466;11.086;2024-03-06T07:10:27;7.60;95.20
1415;DHT22;702;49.466;11.086;2024-03-06T07:12:55;7.70;95.30
1415;DHT22;702;49.466;11.086;2024-03-06T07:15:23;7.70;95.50
1415;DHT22;702;49.466;11.086;2024-03-06T07:17:51;7.70;95.20
1415;DHT22;702;49.466;11.086;2024-03-06T07:20:18;7.80;95.50
1415;DHT22;702;49.466;11.086;2024-03-06T07:22:45;7.90;94.80
1415;DHT22;702;49.466;11.086;2024-03-06T07:25:13;7.80;94.50
1415;DHT22;702;49.466;11.086;2024-03-06T07:27:40;7.80;94.50
1415;DHT22;702;49.466;11.086;2024-03-06T07:30:09;7.80;94.80
1415;DHT22;702;49.466;11.086;2024-03-06T07:32:38;7.90;95.10
1415;DHT22;702;49.466;11.086;2024-03-06T07:35:08;7.90;94.20
1415;DHT22;702;49.466;11.086;2024-03-06T07:37:35;8.00;94.20
1415;DHT22;702;49.466;11.086;2024-03-06T07:40:04;8.00;93.80
1415;DHT22;702;49.466;11.086;2024-03-06T07:42:35;8.00;94.20
1415;DHT22;702;49.466;11.086;2024-03-06T07:45:04;8.10;93.70
1415;DHT22;702;49.466;11.086;2024-03-06T07:47:32;8.10;92.90
1415;DHT22;702;49.466;11.086;2024-03-06T07:50:03;8.10;92.90
1415;DHT22;702;49.466;11.086;2024-03-06T07:52:44;8.20;91.70
1415;DHT22;702;49.466;11.086;2024-03-06T07:55:13;8.40;91.20
1415;DHT22;702;49.466;11.086;2024-03-06T07:57:40;8.50;91.00
1415;DHT22;702;49.466;11.086;2024-03-06T08:00:08;8.50;88.80
1415;DHT22;702;49.466;11.086;2024-03-06T08:02:40;8.60;88.90
1415;DHT22;702;49.466;11.086;2024-03-06T08:05:11;8.70;88.20
1415;DHT22;702;49.466;11.086;2024-03-06T08:07:39;8.80;87.80
1415;DHT22;702;49.466;11.086;2024-03-06T08:10:12;8.90;86.60
1415;DHT22;702;49.466;11.086;2024-03-06T08:12:45;9.00;86.10
1415;DHT22;702;49.466;11.086;2024-03-06T08:15:14;9.00;85.20
1415;DHT22;702;49.466;11.086;2024-03-06T08:17:43;9.10;85.10
1415;DHT22;702;49.466;11.086;2024-03-06T08:20:15;9.20;84.60
1415;DHT22;702;49.466;11.086;2024-03-06T08:22:43;9.20;85.10
1415;DHT22;702;49.466;11.086;2024-03-06T08:25:12;9.20;84.90
1415;DHT22;702;49.466;11.086;2024-03-06T08:27:40;9.30;85.00
1415;DHT22;702;49.466;11.086;2024-03-06T08:30:09;9.30;84.30
1415;DHT22;702;49.466;11.086;2024-03-06T08:32:39;9.20;83.70
1415;DHT22;702;49.466;11.086;2024-03-06T08:35:08;9.20;83.70
1415;DHT22;702;49.466;11.086;2024-03-06T08:37:39;9.30;83.60
1415;DHT22;702;49.466;11.086;2024-03-06T08:40:07;9.30;83.20
1415;DHT22;702;49.466;11.086;2024-03-06T08:42:40;9.30;83.00
1415;DHT22;702;49.466;11.086;2024-03-06T08:45:09;9.20;82.80
1415;DHT22;702;49.466;11.086;2024-03-06T08:47:38;9.30;82.60
1415;DHT22;702;49.466;11.086;2024-03-06T08:50:05;9.20;82.50
1415;DHT22;702;49.466;11.086;2024-03-06T08:52:34;9.20;82.60
1415;DHT22;702;49.466;11.086;2024-03-06T08:55:03;9.20;82.50
1415;DHT22;702;49.466;11.086;2024-03-06T08:57:31;9.10;82.50
1415;DHT22;702;49.466;11.086;2024-03-06T08:59:59;9.10;82.60
1415;DHT22;702;49.466;11.086;2024-03-06T09:02:26;9.10;82.60
1415;DHT22;702;49.466;11.086;2024-03-06T09:04:54;9.10;82.60
1415;DHT22;702;49.466;11.086;2024-03-06T09:07:22;9.20;82.60
1415;DHT22;702;49.466;11.086;2024-03-06T09:09:50;9.20;82.40
1415;DHT22;702;49.466;11.086;2024-03-06T09:12:19;9.30;82.40
1415;DHT22;702;49.466;11.086;2024-03-06T09:14:46;9.20;81.90
1415;DHT22;702;49.466;11.086;2024-03-06T09:17:13;9.30;82.10
1415;DHT22;702;49.466;11.086;2024-03-06T09:19:41;9.30;81.80
1415;DHT22;702;49.466;11.086;2024-03-06T09:22:09;9.20;81.90
1415;DHT22;702;49.466;11.086;2024-03-06T09:24:36;9.30;81.80
1415;DHT22;702;49.466;11.086;2024-03-06T09:27:04;9.50;81.40
1415;DHT22;702;49.466;11.086;2024-03-06T09:29:33;9.60;81.10
1415;DHT22;702;49.466;11.086;2024-03-06T09:32:00;9.70;80.80
1415;DHT22;702;49.466;11.086;2024-03-06T09:34:27;9.80;80.20
1415;DHT22;702;49.466;11.086;2024-03-06T09:36:55;10.00;79.00
1415;DHT22;702;49.466;11.086;2024-03-06T09:39:22;10.00;79.00
1415;DHT22;702;49.466;11.086;2024-03-06T09:41:49;10.10;78.60
1415;DHT22;702;49.466;11.086;2024-03-06T09:44:17;10.20;78.40
1415;DHT22;702;49.466;11.086;2024-03-06T09:46:48;10.30;77.80
1415;DHT22;702;49.466;11.086;2024-03-06T09:49:16;10.40;77.60
1415;DHT22;702;49.466;11.086;2024-03-06T09:51:46;10.60;77.60
1415;DHT22;702;49.466;11.086;2024-03-06T09:54:16;10.80;77.30
1415;DHT22;702;49.466;11.086;2024-03-06T09:56:44;10.90;76.80
1415;DHT22;702;49.466;11.086;2024-03-06T09:59:13;11.00;76.80
1415;DHT22;702;49.466;11.086;2024-03-06T10:01:47;11.00;76.50
1415;DHT22;702;49.466;11.086;2024-03-06T10:04:21;10.90;75.80
1415;DHT22;702;49.466;11.086;2024-03-06T10:06:56;10.90;75.80
1415;DHT22;702;49.466;11.086;2024-03-06T10:09:34;10.80;76.10
1415;DHT22;702;49.466;11.086;2024-03-06T10:12:01;10.80;76.00
1415;DHT22;702;49.466;11.086;2024-03-06T10:14:29;10.60;76.00
1415;DHT22;702;49.466;11.086;2024-03-06T10:17:00;10.80;75.70
1415;DHT22;702;49.466;11.086;2024-03-06T10:19:29;10.90;75.30
1415;DHT22;702;49.466;11.086;2024-03-06T10:21:57;11.00;74.90
1415;DHT22;702;49.466;11.086;2024-03-06T10:24:26;11.10;74.80
1415;DHT22;702;49.466;11.086;2024-03-06T10:26:55;11.00;74.60
1415;DHT22;702;49.466;11.086;2024-03-06T10:29:25;10.90;74.60
1415;DHT22;702;49.466;11.086;2024-03-06T10:31:54;10.90;74.70
1415;DHT22;702;49.466;11.086;2024-03-06T10:34:25;11.20;73.90
1415;DHT22;702;49.466;11.086;2024-03-06T10:36:54;11.00;73.30
1415;DHT22;702;49.466;11.086;2024-03-06T10:39:24;10.90;73.50
1415;DHT22;702;49.466;11.086;2024-03-06T10:41:52;11.10;73.50
1415;DHT22;702;49.466;11.086;2024-03-06T10:44:22;11.20;73.60
1415;DHT22;702;49.466;11.086;2024-03-06T10:47:03;11.40;73.40
1415;DHT22;702;49.466;11.086;2024-03-06T10:49:33;11.40;73.30
1415;DHT22;702;49.466;11.086;2024-03-06T10:52:04;11.40;72.80
1415;DHT22;702;49.466;11.086;2024-03-06T10:54:33;11.50;72.80
1415;DHT22;702;49.466;11.086;2024-03-06T10:57:05;11.60;72.00
1415;DHT22;702;49.466;11.086;2024-03-06T10:59:35;11.60;71.80
1415;DHT22;702;49.466;11.086;2024-03-06T11:02:02;11.50;71.60
1415;DHT22;702;49.466;11.086;2024-03-06T11:04:31;11.50;71.30
1415;DHT22;702;49.466;11.086;2024-03-06T11:07:00;11.70;71.30
1415;DHT22;702;49.466;11.086;2024-03-06T11:09:29;11.60;70.30
1415;DHT22;702;49.466;11.086;2024-03-06T11:12:00;11.50;70.60
1415;DHT22;702;49.466;11.086;2024-03-06T11:14:31;11.60;70.80
1415;DHT22;702;49.466;11.086;2024-03-06T11:17:00;11.70;70.20
1415;DHT22;702;49.466;11.086;2024-03-06T11:19:29;11.60;69.70
1415;DHT22;702;49.466;11.086;2024-03-06T11:21:59;11.80;69.70
1415;DHT22;702;49.466;11.086;2024-03-06T11:24:32;12.00;69.60
1415;DHT22;702;49.466;11.086;2024-03-06T11:27:01;11.90;68.60
1415;DHT22;702;49.466;11.086;2024-03-06T11:30:06;11.80;68.60
1415;DHT22;702;49.466;11.086;2024-03-06T11:32:37;11.60;68.20
1415;DHT22;702;49.466;11.086;2024-03-06T11:35:08;11.60;68.30
1415;DHT22;702;49.466;11.086;2024-03-06T11:37:46;11.60;68.20
1415;DHT22;702;49.466;11.086;2024-03-06T11:40:13;11.60;68.30
1415;DHT22;702;49.466;11.086;2024-03-06T11:42:40;11.50;67.90
1415;DHT22;702;49.466;11.086;2024-03-06T11:45:16;11.30;68.30
1415;DHT22;702;49.466;11.086;2024-03-06T11:47:59;11.40;68.20
1415;DHT22;702;49.466;11.086;2024-03-06T11:50:26;11.50;68.50
1415;DHT22;702;49.466;11.086;2024-03-06T11:52:57;11.30;68.30
1415;DHT22;702;49.466;11.086;2024-03-06T11:55:25;11.00;68.90
1415;DHT22;702;49.466;11.086;2024-03-06T11:57:52;10.90;69.00
1415;DHT22;702;49.466;11.086;2024-03-06T12:00:21;10.80;69.30
1415;DHT22;702;49.466;11.086;2024-03-06T12:02:50;10.80;68.90
1415;DHT22;702;49.466;11.086;2024-03-06T12:05:22;10.70;69.10
1415;DHT22;702;49.466;11.086;2024-03-06T12:07:50;10.80;69.00
1415;DHT22;702;49.466;11.086;2024-03-06T12:10:20;10.90;68.70
1415;DHT22;702;49.466;11.086;2024-03-06T12:12:53;10.90;68.60
1415;DHT22;702;49.466;11.086;2024-03-06T12:15:20;11.10;68.20
1415;DHT22;702;49.466;11.086;2024-03-06T12:17:48;11.10;67.30
1415;DHT22;702;49.466;11.086;2024-03-06T12:20:16;11.00;66.70
1415;DHT22;702;49.466;11.086;2024-03-06T12:22:44;10.90;66.40
1415;DHT22;702;49.466;11.086;2024-03-06T12:25:22;10.80;66.60
1415;DHT22;702;49.466;11.086;2024-03-06T12:27:54;10.90;66.60
1415;DHT22;702;49.466;11.086;2024-03-06T12:30:22;11.00;67.00
1415;DHT22;702;49.466;11.086;2024-03-06T12:32:56;11.00;66.60
1415;DHT22;702;49.466;11.086;2024-03-06T12:35:24;11.10;66.10
1415;DHT22;702;49.466;11.086;2024-03-06T12:37:52;11.20;66.20
1415;DHT22;702;49.466;11.086;2024-03-06T12:40:21;11.40;66.10
1415;DHT22;702;49.466;11.086;2024-03-06T12:42:48;11.40;65.50
1415;DHT22;702;49.466;11.086;2024-03-06T12:45:17;11.50;65.00
1415;DHT22;702;49.466;11.086;2024-03-06T12:47:47;11.50;65.00
1415;DHT22;702;49.466;11.086;2024-03-06T12:50:15;11.60;65.00
1415;DHT22;702;49.466;11.086;2024-03-06T12:52:44;11.60;64.80
1415;DHT22;702;49.466;11.086;2024-03-06T12:55:12;11.80;65.00
1415;DHT22;702;49.466;11.086;2024-03-06T12:57:40;11.90;64.40
1415;DHT22;702;49.466;11.086;2024-03-06T13:00:10;11.90;64.50
1415;DHT22;702;49.466;11.086;2024-03-06T13:02:41;12.00;64.30
1415;DHT22;702;49.466;11.086;2024-03-06T13:05:09;12.00;64.00
1415;DHT22;702;49.466;11.086;2024-03-06T13:07:37;12.10;63.80
1415;DHT22;702;49.466;11.086;2024-03-06T13:10:05;12.20;63.40
1415;DHT22;702;49.466;11.086;2024-03-06T13:12:36;12.50;63.60
1415;DHT22;702;49.466;11.086;2024-03-06T13:15:05;12.50;63.80
1415;DHT22;702;49.466;11.086;2024-03-06T13:17:33;12.60;64.10
1415;DHT22;702;49.466;11.086;2024-03-06T13:20:01;12.50;63.40
1415;DHT22;702;49.466;11.086;2024-03-06T13:22:28;12.40;63.30
1415;DHT22;702;49.466;11.086;2024-03-06T13:24:56;12.20;63.30
1415;DHT22;702;49.466;11.086;2024-03-06T13:27:23;12.20;63.20
1415;DHT22;702;49.466;11.086;2024-03-06T13:29:50;12.20;63.40
1415;DHT22;702;49.466;11.086;2024-03-06T13:32:19;12.20;62.90
1415;DHT22;702;49.466;11.086;2024-03-06T13:34:46;12.30;63.20
1415;DHT22;702;49.466;11.086;2024-03-06T13:37:14;12.10;62.60
1415;DHT22;702;49.466;11.086;2024-03-06T13:39:42;12.00;62.20
1415;DHT22;702;49.466;11.086;2024-03-06T13:42:09;11.80;62.70
1415;DHT22;702;49.466;11.086;2024-03-06T13:44:36;11.80;62.90
1415;DHT22;702;49.466;11.086;2024-03-06T13:47:03;11.80;62.90
1415;DHT22;702;49.466;11.086;2024-03-06T13:49:36;11.80;63.00
1415;DHT22;702;49.466;11.086;2024-03-06T13:52:05;11.90;63.10
1415;DHT22;702;49.466;11.086;2024-03-06T13:54:37;12.00;63.20
1415;DHT22;702;49.466;11.086;2024-03-06T13:57:26;12.10;63.10
1415;DHT22;702;49.466;11.086;2024-03-06T13:59:54;12.10;63.10
1415;DHT22;702;49.466;11.086;2024-03-06T14:02:21;12.00;62.80
1415;DHT22;702;49.466;11.086;2024-03-06T14:04:50;11.90;63.50
1415;DHT22;702;49.466;11.086;2024-03-06T14:07:17;11.90;63.80
1415;DHT22;702;49.466;11.086;2024-03-06T14:09:44;12.10;63.40
1415;DHT22;702;49.466;11.086;2024-03-06T14:12:11;12.10;63.30
1415;DHT22;702;49.466;11.086;2024-03-06T14:14:38;12.10;63.00
1415;DHT22;702;49.466;11.086;2024-03-06T14:17:05;12.00;63.50
1415;DHT22;702;49.466;11.086;2024-03-06T14:19:33;11.90;63.40
1415;DHT22;702;49.466;11.086;2024-03-06T14:22:02;11.90;63.60
1415;DHT22;702;49.466;11.086;2024-03-06T14:24:29;11.80;63.50
1415;DHT22;702;49.466;11.086;2024-03-06T14:26:56;11.80;63.60
1415;DHT22;702;49.466;11.086;2024-03-06T14:29:24;11.80;63.50
1415;DHT22;702;49.466;11.086;2024-03-06T14:31:53;11.70;63.90
1415;DHT22;702;49.466;11.086;2024-03-06T14:34:21;11.50;63.90
1415;DHT22;702;49.466;11.086;2024-03-06T14:36:49;11.50;64.00
1415;DHT22;702;49.466;11.086;2024-03-06T14:39:18;11.30;64.20
1415;DHT22;702;49.466;11.086;2024-03-06T14:41:48;11.20;64.30
1415;DHT22;702;49.466;11.086;2024-03-06T14:44:15;11.20;64.60
1415;DHT22;702;49.466;11.086;2024-03-06T14:46:43;11.20;64.70
1415;DHT22;702;49.466;11.086;2024-03-06T14:49:10;11.20;64.80
1415;DHT22;702;49.466;11.086;2024-03-06T14:51:37;11.20;65.00
1415;DHT22;702;49.466;11.086;2024-03-06T14:54:05;11.30;65.00
1415;DHT22;702;49.466;11.086;2024-03-06T14:56:33;11.20;65.00
1415;DHT22;702;49.466;11.086;2024-03-06T14:59:01;11.10;65.20
1415;DHT22;702;49.466;11.086;2024-03-06T15:01:28;11.20;65.50
1415;DHT22;702;49.466;11.086;2024-03-06T15:03:56;11.20;65.60
1415;DHT22;702;49.466;11.086;2024-03-06T15:06:24;11.20;65.70
1415;DHT22;702;49.466;11.086;2024-03-06T15:08:52;11.20;65.40
1415;DHT22;702;49.466;11.086;2024-03-06T15:11:19;11.30;65.30
1415;DHT22;702;49.466;11.086;2024-03-06T15:13:50;11.40;65.40
1415;DHT22;702;49.466;11.086;2024-03-06T15:16:18;11.40;65.10
1415;DHT22;702;49.466;11.086;2024-03-06T15:18:47;11.50;65.20
1415;DHT22;702;49.466;11.086;2024-03-06T15:21:14;11.50;64.90
1415;DHT22;702;49.466;11.086;2024-03-06T15:23:42;11.40;64.90
1415;DHT22;702;49.466;11.086;2024-03-06T15:26:09;11.30;65.00
1415;DHT22;702;49.466;11.086;2024-03-06T15:28:37;11.30;64.80
1415;DHT22;702;49.466;11.086;2024-03-06T15:31:05;11.40;64.70
1415;DHT22;702;49.466;11.086;2024-03-06T15:33:33;11.40;64.80
1415;DHT22;702;49.466;11.086;2024-03-06T15:36:00;11.30;64.20
1415;DHT22;702;49.466;11.086;2024-03-06T15:38:28;11.20;64.40
1415;DHT22;702;49.466;11.086;2024-03-06T15:40:55;11.20;64.40
1415;DHT22;702;49.466;11.086;2024-03-06T15:43:22;11.10;64.60
1415;DHT22;702;49.466;11.086;2024-03-06T15:45:50;11.00;64.70
1415;DHT22;702;49.466;11.086;2024-03-06T15:48:19;10.90;64.90
1415;DHT22;702;49.466;11.086;2024-03-06T15:50:50;10.90;64.50
1415;DHT22;702;49.466;11.086;2024-03-06T15:53:19;10.90;64.60
1415;DHT22;702;49.466;11.086;2024-03-06T15:55:47;10.80;64.70
1415;DHT22;702;49.466;11.086;2024-03-06T15:58:14;10.90;64.90
1415;DHT22;702;49.466;11.086;2024-03-06T16:00:41;10.80;64.70
1415;DHT22;702;49.466;11.086;2024-03-06T16:03:09;10.90;64.90
1415;DHT22;702;49.466;11.086;2024-03-06T16:05:38;11.00;65.30
1415;DHT22;702;49.466;11.086;2024-03-06T16:08:05;11.00;65.40
1415;DHT22;702;49.466;11.086;2024-03-06T16:10:33;11.00;65.50
1415;DHT22;702;49.466;11.086;2024-03-06T16:13:00;10.90;65.80
1415;DHT22;702;49.466;11.086;2024-03-06T16:15:27;11.00;65.90
1415;DHT22;702;49.466;11.086;2024-03-06T16:17:58;10.90;66.00
1415;DHT22;702;49.466;11.086;2024-03-06T16:20:25;11.00;65.90